sensor_id;sensor_type;location;lat;lon;timestamp;temperature;humidity
68139;DHT22;54940;50.842;4.410;2023-01-09T00:01:25;7.30;99.90
68139;DHT22;54940;50.842;4.410;2023-01-09T00:03:52;7.30;99.90
68139;DHT22;54940;50.842;4.410;2023-01-09T00:06:17;7.20;99.90
68139;DHT22;54940;50.842;4.410;2023-01-09T00:08:43;7.20;99.90
68139;DHT22;54940;50.842;4.410;2023-01-09T00:11:09;7.10;99.90
68139;DHT22;54940;50.842;4.410;2023-01-09T00:13:34;7.10;99.90
68139;DHT22;54940;50.842;4.410;2023-01-09T00:16:00;7.10;99.90
68139;DHT22;54940;50.842;4.410;2023-01-09T00:18:26;7.10;99.90
68139;DHT22;54940;50.842;4.410;2023-01-09T00:20:52;7.10;99.90
68139;DHT22;54940;50.842;4.410;2023-01-09T00:23:17;7.20;99.90
68139;DHT22;54940;50.842;4.410;2023-01-09T00:25:43;7.10;99.90
68139;DHT22;54940;50.842;4.410;2023-01-09T00:28:09;7.20;99.90
68139;DHT22;54940;50.842;4.410;2023-01-09T00:30:34;7.20;99.90
68139;DHT22;54940;50.842;4.410;2023-01-09T00:33:00;7.20;99.90
68139;DHT22;54940;50.842;4.410;2023-01-09T00:35:27;7.10;99.90
68139;DHT22;54940;50.842;4.410;2023-01-09T00:37:53;7.10;99.90
68139;DHT22;54940;50.842;4.410;2023-01-09T00:40:19;7.10;99.90
68139;DHT22;54940;50.842;4.410;2023-01-09T00:42:50;7.10;99.90
68139;DHT22;54940;50.842;4.410;2023-01-09T00:45:20;7.10;99.90
68139;DHT22;54940;50.842;4.410;2023-01-09T00:47:53;7.10;99.90
68139;DHT22;54940;50.842;4.410;2023-01-09T00:50:23;7.10;99.90
68139;DHT22;54940;50.842;4.410;2023-01-09T00:52:53;7.10;99.90
68139;DHT22;54940;50.842;4.410;2023-01-09T00:55:21;7.10;99.90
68139;DHT22;54940;50.842;4.410;2023-01-09T00:57:47;7.00;99.90
68139;DHT22;54940;50.842;4.410;2023-01-09T01:00:14;7.00;99.90
68139;DHT22;54940;50.842;4.410;2023-01-09T01:02:40;7.10;99.90
68139;DHT22;54940;50.842;4.410;2023-01-09T01:05:06;7.10;99.90
68139;DHT22;54940;50.842;4.410;2023-01-09T01:07:50;7.00;99.90
68139;DHT22;54940;50.842;4.410;2023-01-09T01:10:22;7.00;99.90
68139;DHT22;54940;50.842;4.410;2023-01-09T01:12:49;7.00;99.90
68139;DHT22;54940;50.842;4.410;2023-01-09T01:15:17;7.00;99.90
68139;DHT22;54940;50.842;4.410;2023-01-09T01:17:43;7.00;99.90
68139;DHT22;54940;50.842;4.410;2023-01-09T01:20:12;7.00;99.90
68139;DHT22;54940;50.842;4.410;2023-01-09T01:22:38;6.90;99.90
68139;DHT22;54940;50.842;4.410;2023-01-09T01:25:07;6.90;99.90
68139;DHT22;54940;50.842;4.410;2023-01-09T01:27:32;6.80;99.90
68139;DHT22;54940;50.842;4.410;2023-01-09T01:29:58;6.90;99.90
68139;DHT22;54940;50.842;4.410;2023-01-09T01:32:24;6.90;99.90
68139;DHT22;54940;50.842;4.410;2023-01-09T01:34:49;6.90;99.90
68139;DHT22;54940;50.842;4.410;2023-01-09T01:37:15;6.90;99.90
68139;DHT22;54940;50.842;4.410;2023-01-09T01:39:41;6.90;99.90
68139;DHT22;54940;50.842;4.410;2023-01-09T01:42:06;6.90;99.90
68139;DHT22;54940;50.842;4.410;2023-01-09T01:45:12;6.90;99.90
68139;DHT22;54940;50.842;4.410;2023-01-09T01:50:23;6.80;99.90
68139;DHT22;54940;50.842;4.410;2023-01-09T01:53:19;6.90;99.90
68139;DHT22;54940;50.842;4.410;2023-01-09T01:58:19;6.90;99.90
68139;DHT22;54940;50.842;4.410;2023-01-09T02:00:46;6.80;99.90
68139;DHT22;54940;50.842;4.410;2023-01-09T02:03:16;6.80;99.90
68139;DHT22;54940;50.842;4.410;2023-01-09T02:05:43;6.80;99.90
68139;DHT22;54940;50.842;4.410;2023-01-09T02:08:09;6.80;99.90
68139;DHT22;54940;50.842;4.410;2023-01-09T02:10:36;6.80;99.90
68139;DHT22;54940;50.842;4.410;2023-01-09T02:13:04;6.80;99.90
68139;DHT22;54940;50.842;4.410;2023-01-09T02:15:38;6.90;99.90
68139;DHT22;54940;50.842;4.410;2023-01-09T02:20:57;6.90;99.90
68139;DHT22;54940;50.842;4.410;2023-01-09T02:29:33;6.90;99.90
68139;DHT22;54940;50.842;4.410;2023-01-09T02:35:01;6.90;99.90
68139;DHT22;54940;50.842;4.410;2023-01-09T02:38:09;6.90;99.90
68139;DHT22;54940;50.842;4.410;2023-01-09T02:40:46;7.00;99.90
68139;DHT22;54940;50.842;4.410;2023-01-09T02:43:12;7.00;99.90
68139;DHT22;54940;50.842;4.410;2023-01-09T02:45:39;7.10;99.90
68139;DHT22;54940;50.842;4.410;2023-01-09T02:48:04;7.10;99.90
68139;DHT22;54940;50.842;4.410;2023-01-09T02:54:10;7.00;99.90
68139;DHT22;54940;50.842;4.410;2023-01-09T02:59:51;7.00;99.90
68139;DHT22;54940;50.842;4.410;2023-01-09T03:02:53;7.00;99.90
68139;DHT22;54940;50.842;4.410;2023-01-09T03:05:39;7.10;99.90
68139;DHT22;54940;50.842;4.410;2023-01-09T03:08:12;7.20;99.90
68139;DHT22;54940;50.842;4.410;2023-01-09T03:11:01;7.10;99.90
68139;DHT22;54940;50.842;4.410;2023-01-09T03:13:32;7.10;99.90
68139;DHT22;54940;50.842;4.410;2023-01-09T03:16:04;7.10;99.90
68139;DHT22;54940;50.842;4.410;2023-01-09T03:18:31;7.20;99.90
68139;DHT22;54940;50.842;4.410;2023-01-09T03:21:00;7.10;99.90
68139;DHT22;54940;50.842;4.410;2023-01-09T03:23:26;7.10;99.90
68139;DHT22;54940;50.842;4.410;2023-01-09T03:25:52;7.20;99.90
68139;DHT22;54940;50.842;4.410;2023-01-09T03:28:28;7.10;99.90
68139;DHT22;54940;50.842;4.410;2023-01-09T03:30:53;7.10;99.90
68139;DHT22;54940;50.842;4.410;2023-01-09T03:33:19;7.10;99.90
68139;DHT22;54940;50.842;4.410;2023-01-09T03:35:45;7.20;99.90
68139;DHT22;54940;50.842;4.410;2023-01-09T03:38:11;7.20;99.90
68139;DHT22;54940;50.842;4.410;2023-01-09T03:40:37;7.20;99.90
68139;DHT22;54940;50.842;4.410;2023-01-09T03:43:02;7.20;99.90
68139;DHT22;54940;50.842;4.410;2023-01-09T03:45:28;7.20;99.90
68139;DHT22;54940;50.842;4.410;2023-01-09T03:47:54;7.20;99.90
68139;DHT22;54940;50.842;4.410;2023-01-09T03:50:21;7.20;99.90
68139;DHT22;54940;50.842;4.410;2023-01-09T03:52:47;7.20;99.90
68139;DHT22;54940;50.842;4.410;2023-01-09T03:55:13;7.30;99.90
68139;DHT22;54940;50.842;4.410;2023-01-09T03:57:38;7.40;99.90
68139;DHT22;54940;50.842;4.410;2023-01-09T04:00:04;7.30;99.90
68139;DHT22;54940;50.842;4.410;2023-01-09T04:02:30;7.30;99.90
68139;DHT22;54940;50.842;4.410;2023-01-09T04:04:56;7.40;99.90
68139;DHT22;54940;50.842;4.410;2023-01-09T04:07:21;7.40;99.90
68139;DHT22;54940;50.842;4.410;2023-01-09T04:09:47;7.50;99.90
68139;DHT22;54940;50.842;4.410;2023-01-09T04:12:13;7.40;99.90
68139;DHT22;54940;50.842;4.410;2023-01-09T04:14:39;7.50;99.90
68139;DHT22;54940;50.842;4.410;2023-01-09T04:17:04;7.50;99.90
68139;DHT22;54940;50.842;4.410;2023-01-09T04:19:30;7.50;99.90
68139;DHT22;54940;50.842;4.410;2023-01-09T04:21:55;7.60;99.90
68139;DHT22;54940;50.842;4.410;2023-01-09T04:24:21;7.60;99.90
68139;DHT22;54940;50.842;4.410;2023-01-09T04:26:47;7.60;99.90
68139;DHT22;54940;50.842;4.410;2023-01-09T04:29:12;7.60;99.90
68139;DHT22;54940;50.842;4.410;2023-01-09T04:31:38;7.70;99.90
68139;DHT22;54940;50.842;4.410;2023-01-09T04:34:04;7.70;99.90
68139;DHT22;54940;50.842;4.410;2023-01-09T04:36:29;7.70;99.90
68139;DHT22;54940;50.842;4.410;2023-01-09T04:38:55;7.70;99.90
68139;DHT22;54940;50.842;4.410;2023-01-09T04:41:21;7.70;99.90
68139;DHT22;54940;50.842;4.410;2023-01-09T04:44:05;7.60;99.90
68139;DHT22;54940;50.842;4.410;2023-01-09T04:46:30;7.70;99.90
68139;DHT22;54940;50.842;4.410;2023-01-09T04:48:56;7.60;99.90
68139;DHT22;54940;50.842;4.410;2023-01-09T04:51:22;7.70;99.90
68139;DHT22;54940;50.842;4.410;2023-01-09T04:53:47;7.60;99.90
68139;DHT22;54940;50.842;4.410;2023-01-09T04:56:13;7.70;99.90
68139;DHT22;54940;50.842;4.410;2023-01-09T04:58:39;7.70;99.90
68139;DHT22;54940;50.842;4.410;2023-01-09T05:01:04;7.70;99.90
68139;DHT22;54940;50.842;4.410;2023-01-09T05:03:30;7.70;99.90
68139;DHT22;54940;50.842;4.410;2023-01-09T05:05:57;7.80;99.90
68139;DHT22;54940;50.842;4.410;2023-01-09T05:08:22;7.80;99.90
68139;DHT22;54940;50.842;4.410;2023-01-09T05:10:48;7.80;99.90
68139;DHT22;54940;50.842;4.410;2023-01-09T05:13:14;7.80;99.90
68139;DHT22;54940;50.842;4.410;2023-01-09T05:15:39;7.90;99.90
68139;DHT22;54940;50.842;4.410;2023-01-09T05:18:05;7.90;99.90
68139;DHT22;54940;50.842;4.410;2023-01-09T05:20:30;7.80;99.90
68139;DHT22;54940;50.842;4.410;2023-01-09T05:22:56;7.80;99.90
68139;DHT22;54940;50.842;4.410;2023-01-09T05:25:22;7.80;99.90
68139;DHT22;54940;50.842;4.410;2023-01-09T05:27:47;7.80;99.90
68139;DHT22;54940;50.842;4.410;2023-01-09T05:30:13;7.70;99.90
68139;DHT22;54940;50.842;4.410;2023-01-09T05:32:39;7.70;99.90
68139;DHT22;54940;50.842;4.410;2023-01-09T05:35:05;7.60;99.90
68139;DHT22;54940;50.842;4.410;2023-01-09T05:37:31;7.70;99.90
68139;DHT22;54940;50.842;4.410;2023-01-09T05:39:56;7.70;99.90
68139;DHT22;54940;50.842;4.410;2023-01-09T05:42:22;7.70;99.90
68139;DHT22;54940;50.842;4.410;2023-01-09T05:44:48;7.70;99.90
68139;DHT22;54940;50.842;4.410;2023-01-09T05:47:13;7.70;99.90
68139;DHT22;54940;50.842;4.410;2023-01-09T05:49:39;7.70;99.90
68139;DHT22;54940;50.842;4.410;2023-01-09T05:52:05;7.70;99.90
68139;DHT22;54940;50.842;4.410;2023-01-09T05:54:30;7.70;99.90
68139;DHT22;54940;50.842;4.410;2023-01-09T05:56:56;7.60;99.90
68139;DHT22;54940;50.842;4.410;2023-01-09T05:59:22;7.70;99.90
68139;DHT22;54940;50.842;4.410;2023-01-09T06:01:47;7.80;99.90
68139;DHT22;54940;50.842;4.410;2023-01-09T06:04:13;7.80;99.90
68139;DHT22;54940;50.842;4.410;2023-01-09T06:06:39;7.70;99.90
68139;DHT22;54940;50.842;4.410;2023-01-09T06:09:06;7.70;99.90
68139;DHT22;54940;50.842;4.410;2023-01-09T06:11:31;7.70;99.90
68139;DHT22;54940;50.842;4.410;2023-01-09T06:14:00;7.70;99.90
68139;DHT22;54940;50.842;4.410;2023-01-09T06:16:26;7.70;99.90
68139;DHT22;54940;50.842;4.410;2023-01-09T06:18:52;7.80;99.90
68139;DHT22;54940;50.842;4.410;2023-01-09T06:21:17;7.80;99.90
68139;DHT22;54940;50.842;4.410;2023-01-09T06:23:43;7.70;99.90
68139;DHT22;54940;50.842;4.410;2023-01-09T06:26:09;7.80;99.90
68139;DHT22;54940;50.842;4.410;2023-01-09T06:28:35;7.70;99.90
68139;DHT22;54940;50.842;4.410;2023-01-09T06:31:00;7.70;99.90
68139;DHT22;54940;50.842;4.410;2023-01-09T06:33:26;7.70;99.90
68139;DHT22;54940;50.842;4.410;2023-01-09T06:35:52;7.70;99.90
68139;DHT22;54940;50.842;4.410;2023-01-09T06:38:17;7.70;99.90
68139;DHT22;54940;50.842;4.410;2023-01-09T06:40:43;7.70;99.90
68139;DHT22;54940;50.842;4.410;2023-01-09T06:43:09;7.70;99.90
68139;DHT22;54940;50.842;4.410;2023-01-09T06:45:34;7.70;99.90
68139;DHT22;54940;50.842;4.410;2023-01-09T06:48:00;7.70;99.90
68139;DHT22;54940;50.842;4.410;2023-01-09T06:50:26;7.70;99.90
68139;DHT22;54940;50.842;4.410;2023-01-09T06:52:52;7.80;99.90
68139;DHT22;54940;50.842;4.410;2023-01-09T06:55:17;7.80;99.90
68139;DHT22;54940;50.842;4.410;2023-01-09T06:57:43;7.70;99.90
68139;DHT22;54940;50.842;4.410;2023-01-09T07:00:09;7.70;99.90
68139;DHT22;54940;50.842;4.410;2023-01-09T07:02:35;7.70;99.90
68139;DHT22;54940;50.842;4.410;2023-01-09T07:05:01;7.80;99.90
68139;DHT22;54940;50.842;4.410;2023-01-09T07:07:27;7.80;99.90
68139;DHT22;54940;50.842;4.410;2023-01-09T07:09:53;7.80;99.90
68139;DHT22;54940;50.842;4.410;2023-01-09T07:12:18;7.80;99.90
68139;DHT22;54940;50.842;4.410;2023-01-09T07:14:44;7.80;99.90
68139;DHT22;54940;50.842;4.410;2023-01-09T07:17:13;7.80;99.90
68139;DHT22;54940;50.842;4.410;2023-01-09T07:19:39;7.80;99.90
68139;DHT22;54940;50.842;4.410;2023-01-09T07:22:04;7.70;99.90
68139;DHT22;54940;50.842;4.410;2023-01-09T07:24:30;7.70;99.90
68139;DHT22;54940;50.842;4.410;2023-01-09T07:26:56;7.70;99.90
68139;DHT22;54940;50.842;4.410;2023-01-09T07:29:21;7.70;99.90
68139;DHT22;54940;50.842;4.410;2023-01-09T07:31:47;7.70;99.90
68139;DHT22;54940;50.842;4.410;2023-01-09T07:34:13;7.70;99.90
68139;DHT22;54940;50.842;4.410;2023-01-09T07:36:38;7.80;99.90
68139;DHT22;54940;50.842;4.410;2023-01-09T07:39:04;7.80;99.90
68139;DHT22;54940;50.842;4.410;2023-01-09T07:41:29;7.70;99.90
68139;DHT22;54940;50.842;4.410;2023-01-09T07:43:56;7.70;99.90
68139;DHT22;54940;50.842;4.410;2023-01-09T07:46:21;7.70;99.90
68139;DHT22;54940;50.842;4.410;2023-01-09T07:48:47;7.70;99.90
68139;DHT22;54940;50.842;4.410;2023-01-09T07:51:13;7.70;99.90
68139;DHT22;54940;50.842;4.410;2023-01-09T07:53:39;7.70;99.90
68139;DHT22;54940;50.842;4.410;2023-01-09T07:56:04;7.70;99.90
68139;DHT22;54940;50.842;4.410;2023-01-09T07:58:30;7.70;99.90
68139;DHT22;54940;50.842;4.410;2023-01-09T08:00:56;7.60;99.90
68139;DHT22;54940;50.842;4.410;2023-01-09T08:03:22;7.70;99.90
68139;DHT22;54940;50.842;4.410;2023-01-09T08:05:48;7.60;99.90
68139;DHT22;54940;50.842;4.410;2023-01-09T08:08:13;7.60;99.90
68139;DHT22;54940;50.842;4.410;2023-01-09T08:10:39;7.60;99.90
68139;DHT22;54940;50.842;4.410;2023-01-09T08:13:05;7.60;99.90
68139;DHT22;54940;50.842;4.410;2023-01-09T08:15:31;7.60;99.90
68139;DHT22;54940;50.842;4.410;2023-01-09T08:17:58;7.70;99.90
68139;DHT22;54940;50.842;4.410;2023-01-09T08:20:23;7.60;99.90
68139;DHT22;54940;50.842;4.410;2023-01-09T08:22:49;7.60;99.90
68139;DHT22;54940;50.842;4.410;2023-01-09T08:25:16;7.60;99.90
68139;DHT22;54940;50.842;4.410;2023-01-09T08:27:42;7.50;99.90
68139;DHT22;54940;50.842;4.410;2023-01-09T08:30:10;7.60;99.90
68139;DHT22;54940;50.842;4.410;2023-01-09T08:32:36;7.60;99.90
68139;DHT22;54940;50.842;4.410;2023-01-09T08:35:02;7.60;99.90
68139;DHT22;54940;50.842;4.410;2023-01-09T08:37:28;7.70;99.90
68139;DHT22;54940;50.842;4.410;2023-01-09T08:39:54;7.70;99.90
68139;DHT22;54940;50.842;4.410;2023-01-09T08:42:21;7.60;99.90
68139;DHT22;54940;50.842;4.410;2023-01-09T08:45:08;7.70;99.90
68139;DHT22;54940;50.842;4.410;2023-01-09T08:47:52;7.60;99.90
68139;DHT22;54940;50.842;4.410;2023-01-09T08:50:18;7.70;99.90
68139;DHT22;54940;50.842;4.410;2023-01-09T08:52:44;7.60;99.90
68139;DHT22;54940;50.842;4.410;2023-01-09T08:55:09;7.60;99.90
68139;DHT22;54940;50.842;4.410;2023-01-09T08:57:35;7.50;99.90
68139;DHT22;54940;50.842;4.410;2023-01-09T09:00:01;7.60;99.90
68139;DHT22;54940;50.842;4.410;2023-01-09T09:02:27;7.60;99.90
68139;DHT22;54940;50.842;4.410;2023-01-09T09:04:52;7.50;99.90
68139;DHT22;54940;50.842;4.410;2023-01-09T09:07:19;7.50;99.90
68139;DHT22;54940;50.842;4.410;2023-01-09T09:09:52;7.50;99.90
68139;DHT22;54940;50.842;4.410;2023-01-09T09:12:18;7.50;99.90
68139;DHT22;54940;50.842;4.410;2023-01-09T09:14:44;7.50;99.90
68139;DHT22;54940;50.842;4.410;2023-01-09T09:17:28;7.40;99.90
68139;DHT22;54940;50.842;4.410;2023-01-09T09:19:54;7.40;99.90
68139;DHT22;54940;50.842;4.410;2023-01-09T09:22:20;7.40;99.90
68139;DHT22;54940;50.842;4.410;2023-01-09T09:24:45;7.40;99.90
68139;DHT22;54940;50.842;4.410;2023-01-09T09:27:11;7.40;99.90
68139;DHT22;54940;50.842;4.410;2023-01-09T09:29:37;7.50;99.90
68139;DHT22;54940;50.842;4.410;2023-01-09T09:32:03;7.40;99.90
68139;DHT22;54940;50.842;4.410;2023-01-09T09:34:28;7.50;99.90
68139;DHT22;54940;50.842;4.410;2023-01-09T09:36:54;7.50;99.90
68139;DHT22;54940;50.842;4.410;2023-01-09T09:39:19;7.40;99.90
68139;DHT22;54940;50.842;4.410;2023-01-09T09:45:17;7.40;99.90
68139;DHT22;54940;50.842;4.410;2023-01-09T09:48:03;7.40;99.90
68139;DHT22;54940;50.842;4.410;2023-01-09T09:51:00;7.40;99.90
68139;DHT22;54940;50.842;4.410;2023-01-09T09:56:21;7.40;99.90
68139;DHT22;54940;50.842;4.410;2023-01-09T09:58:53;7.40;99.90
68139;DHT22;54940;50.842;4.410;2023-01-09T10:01:25;7.40;99.90
68139;DHT22;54940;50.842;4.410;2023-01-09T10:03:57;7.30;99.90
68139;DHT22;54940;50.842;4.410;2023-01-09T10:06:33;7.40;99.90
68139;DHT22;54940;50.842;4.410;2023-01-09T10:14:34;7.40;99.90
68139;DHT22;54940;50.842;4.410;2023-01-09T10:17:36;7.40;99.90
68139;DHT22;54940;50.842;4.410;2023-01-09T10:25:48;7.30;99.90
68139;DHT22;54940;50.842;4.410;2023-01-09T10:28:49;7.30;99.90
68139;DHT22;54940;50.842;4.410;2023-01-09T10:37:04;7.40;99.90
68139;DHT22;54940;50.842;4.410;2023-01-09T10:39:53;7.40;99.90
68139;DHT22;54940;50.842;4.410;2023-01-09T10:47:41;7.40;99.90
68139;DHT22;54940;50.842;4.410;2023-01-09T10:50:21;7.50;99.90
68139;DHT22;54940;50.842;4.410;2023-01-09T10:52:53;7.60;99.90
68139;DHT22;54940;50.842;4.410;2023-01-09T10:55:35;7.50;99.90
68139;DHT22;54940;50.842;4.410;2023-01-09T10:58:11;7.50;99.90
68139;DHT22;54940;50.842;4.410;2023-01-09T11:00:38;7.60;99.90
68139;DHT22;54940;50.842;4.410;2023-01-09T11:03:05;7.60;99.90
68139;DHT22;54940;50.842;4.410;2023-01-09T11:05:30;7.50;99.90
68139;DHT22;54940;50.842;4.410;2023-01-09T11:10:57;7.50;99.90
68139;DHT22;54940;50.842;4.410;2023-01-09T11:13:27;7.50;99.90
68139;DHT22;54940;50.842;4.410;2023-01-09T11:16:16;7.60;99.90
68139;DHT22;54940;50.842;4.410;2023-01-09T11:18:55;7.50;99.90
68139;DHT22;54940;50.842;4.410;2023-01-09T11:21:39;7.60;99.90
68139;DHT22;54940;50.842;4.410;2023-01-09T11:26:50;7.50;99.90
68139;DHT22;54940;50.842;4.410;2023-01-09T11:29:18;7.50;99.90
68139;DHT22;54940;50.842;4.410;2023-01-09T11:31:55;7.50;99.90
68139;DHT22;54940;50.842;4.410;2023-01-09T11:34:25;7.50;99.90
68139;DHT22;54940;50.842;4.410;2023-01-09T11:36:52;7.40;99.90
68139;DHT22;54940;50.842;4.410;2023-01-09T11:39:27;7.50;99.90
68139;DHT22;54940;50.842;4.410;2023-01-09T11:41:55;7.60;99.90
68139;DHT22;54940;50.842;4.410;2023-01-09T11:44:21;7.60;99.90
68139;DHT22;54940;50.842;4.410;2023-01-09T11:46:47;7.60;99.90
68139;DHT22;54940;50.842;4.410;2023-01-09T11:52:16;7.50;99.90
68139;DHT22;54940;50.842;4.410;2023-01-09T11:54:52;7.50;99.90
68139;DHT22;54940;50.842;4.410;2023-01-09T11:57:21;7.50;99.90
68139;DHT22;54940;50.842;4.410;2023-01-09T11:59:47;7.50;99.90
68139;DHT22;54940;50.842;4.410;2023-01-09T12:10:33;7.70;99.90
68139;DHT22;54940;50.842;4.410;2023-01-09T12:16:40;7.70;99.90
68139;DHT22;54940;50.842;4.410;2023-01-09T12:33:03;7.80;99.90
68139;DHT22;54940;50.842;4.410;2023-01-09T12:35:40;7.90;99.90
68139;DHT22;54940;50.842;4.410;2023-01-09T12:39:15;7.90;99.90
68139;DHT22;54940;50.842;4.410;2023-01-09T12:41:44;8.00;99.90
68139;DHT22;54940;50.842;4.410;2023-01-09T12:52:37;8.20;99.90
68139;DHT22;54940;50.842;4.410;2023-01-09T12:57:37;8.30;99.90
68139;DHT22;54940;50.842;4.410;2023-01-09T13:02:59;8.40;99.90
68139;DHT22;54940;50.842;4.410;2023-01-09T13:05:50;8.40;99.90
68139;DHT22;54940;50.842;4.410;2023-01-09T13:08:39;8.50;99.90
68139;DHT22;54940;50.842;4.410;2023-01-09T13:14:02;8.60;99.90
68139;DHT22;54940;50.842;4.410;2023-01-09T13:16:32;8.60;99.90
68139;DHT22;54940;50.842;4.410;2023-01-09T13:21:37;8.60;99.90
68139;DHT22;54940;50.842;4.410;2023-01-09T13:24:17;8.60;99.90
68139;DHT22;54940;50.842;4.410;2023-01-09T13:27:01;8.50;99.90
68139;DHT22;54940;50.842;4.410;2023-01-09T13:34:31;8.70;99.90
68139;DHT22;54940;50.842;4.410;2023-01-09T13:36:58;8.80;99.90
68139;DHT22;54940;50.842;4.410;2023-01-09T13:39:30;8.90;99.90
68139;DHT22;54940;50.842;4.410;2023-01-09T13:42:04;8.90;99.90
68139;DHT22;54940;50.842;4.410;2023-01-09T13:44:51;8.90;99.90
68139;DHT22;54940;50.842;4.410;2023-01-09T13:52:32;8.90;99.90
68139;DHT22;54940;50.842;4.410;2023-01-09T14:02:55;8.70;99.90
68139;DHT22;54940;50.842;4.410;2023-01-09T14:10:44;8.60;99.90
68139;DHT22;54940;50.842;4.410;2023-01-09T14:15:40;8.50;99.90
68139;DHT22;54940;50.842;4.410;2023-01-09T14:18:47;8.40;99.90
68139;DHT22;54940;50.842;4.410;2023-01-09T14:21:13;8.40;99.90
68139;DHT22;54940;50.842;4.410;2023-01-09T14:23:48;8.50;99.90
68139;DHT22;54940;50.842;4.410;2023-01-09T14:26:40;8.50;99.90
68139;DHT22;54940;50.842;4.410;2023-01-09T14:34:46;8.50;99.90
68139;DHT22;54940;50.842;4.410;2023-01-09T14:37:13;8.50;99.90
68139;DHT22;54940;50.842;4.410;2023-01-09T14:39:41;8.50;99.90
68139;DHT22;54940;50.842;4.410;2023-01-09T14:42:10;8.50;99.90
68139;DHT22;54940;50.842;4.410;2023-01-09T14:45:03;8.50;99.90
68139;DHT22;54940;50.842;4.410;2023-01-09T14:50:51;8.40;99.90
68139;DHT22;54940;50.842;4.410;2023-01-09T14:58:35;8.20;99.90
68139;DHT22;54940;50.842;4.410;2023-01-09T15:01:01;8.30;99.90
68139;DHT22;54940;50.842;4.410;2023-01-09T15:03:33;8.20;99.90
68139;DHT22;54940;50.842;4.410;2023-01-09T15:06:02;8.30;99.90
68139;DHT22;54940;50.842;4.410;2023-01-09T15:08:28;8.30;99.90
68139;DHT22;54940;50.842;4.410;2023-01-09T15:10:55;8.30;99.90
68139;DHT22;54940;50.842;4.410;2023-01-09T15:13:34;8.30;99.90
68139;DHT22;54940;50.842;4.410;2023-01-09T15:16:03;8.30;99.90
68139;DHT22;54940;50.842;4.410;2023-01-09T15:18:36;8.20;99.90
68139;DHT22;54940;50.842;4.410;2023-01-09T15:21:03;8.10;99.90
68139;DHT22;54940;50.842;4.410;2023-01-09T15:23:30;8.00;99.90
68139;DHT22;54940;50.842;4.410;2023-01-09T15:26:10;7.90;99.90
68139;DHT22;54940;50.842;4.410;2023-01-09T15:28:40;7.90;99.90
68139;DHT22;54940;50.842;4.410;2023-01-09T15:31:13;7.90;99.90
68139;DHT22;54940;50.842;4.410;2023-01-09T15:33:41;7.90;99.90
68139;DHT22;54940;50.842;4.410;2023-01-09T15:36:25;8.00;99.90
68139;DHT22;54940;50.842;4.410;2023-01-09T15:38:52;8.00;99.90
68139;DHT22;54940;50.842;4.410;2023-01-09T15:41:23;8.00;99.90
68139;DHT22;54940;50.842;4.410;2023-01-09T15:44:26;8.00;99.90
68139;DHT22;54940;50.842;4.410;2023-01-09T15:46:56;8.00;99.90
68139;DHT22;54940;50.842;4.410;2023-01-09T15:49:24;8.00;99.90
68139;DHT22;54940;50.842;4.410;2023-01-09T15:51:50;8.00;99.90
68139;DHT22;54940;50.842;4.410;2023-01-09T15:54:21;7.90;99.90
68139;DHT22;54940;50.842;4.410;2023-01-09T15:56:51;7.90;99.90
68139;DHT22;54940;50.842;4.410;2023-01-09T15:59:25;7.80;99.90
68139;DHT22;54940;50.842;4.410;2023-01-09T16:01:59;7.80;99.90
68139;DHT22;54940;50.842;4.410;2023-01-09T16:04:45;7.80;99.90
68139;DHT22;54940;50.842;4.410;2023-01-09T16:07:14;7.80;99.90
68139;DHT22;54940;50.842;4.410;2023-01-09T16:09:43;7.70;99.90
68139;DHT22;54940;50.842;4.410;2023-01-09T16:12:24;7.80;99.90
68139;DHT22;54940;50.842;4.410;2023-01-09T16:14:53;7.90;99.90
68139;DHT22;54940;50.842;4.410;2023-01-09T16:17:20;7.90;99.90
68139;DHT22;54940;50.842;4.410;2023-01-09T16:19:54;7.90;99.90
68139;DHT22;54940;50.842;4.410;2023-01-09T16:24:49;7.80;99.90
68139;DHT22;54940;50.842;4.410;2023-01-09T16:27:31;7.80;99.90
68139;DHT22;54940;50.842;4.410;2023-01-09T16:30:25;7.90;99.90
68139;DHT22;54940;50.842;4.410;2023-01-09T16:32:50;7.80;99.90
68139;DHT22;54940;50.842;4.410;2023-01-09T16:35:21;7.80;99.90
68139;DHT22;54940;50.842;4.410;2023-01-09T16:37:49;7.80;99.90
68139;DHT22;54940;50.842;4.410;2023-01-09T16:42:54;7.80;99.90
68139;DHT22;54940;50.842;4.410;2023-01-09T16:45:33;7.70;99.90
68139;DHT22;54940;50.842;4.410;2023-01-09T16:48:15;7.70;99.90
68139;DHT22;54940;50.842;4.410;2023-01-09T16:50:42;7.70;99.90
68139;DHT22;54940;50.842;4.410;2023-01-09T16:53:20;7.60;99.90
68139;DHT22;54940;50.842;4.410;2023-01-09T16:55:48;7.70;99.90
68139;DHT22;54940;50.842;4.410;2023-01-09T16:58:17;7.60;99.90
68139;DHT22;54940;50.842;4.410;2023-01-09T17:00:43;7.60;99.90
68139;DHT22;54940;50.842;4.410;2023-01-09T17:03:13;7.60;99.90
68139;DHT22;54940;50.842;4.410;2023-01-09T17:05:39;7.60;99.90
68139;DHT22;54940;50.842;4.410;2023-01-09T17:08:22;7.70;99.90
68139;DHT22;54940;50.842;4.410;2023-01-09T17:10:50;7.60;99.90
68139;DHT22;54940;50.842;4.410;2023-01-09T17:13:16;7.70;99.90
68139;DHT22;54940;50.842;4.410;2023-01-09T17:15:42;7.70;99.90
68139;DHT22;54940;50.842;4.410;2023-01-09T17:18:14;7.70;99.90
68139;DHT22;54940;50.842;4.410;2023-01-09T17:20:42;7.60;99.90
68139;DHT22;54940;50.842;4.410;2023-01-09T17:23:07;7.60;99.90
68139;DHT22;54940;50.842;4.410;2023-01-09T17:25:33;7.60;99.90
68139;DHT22;54940;50.842;4.410;2023-01-09T17:28:18;7.60;99.90
68139;DHT22;54940;50.842;4.410;2023-01-09T17:31:00;7.60;99.90
68139;DHT22;54940;50.842;4.410;2023-01-09T17:33:26;7.50;99.90
68139;DHT22;54940;50.842;4.410;2023-01-09T17:35:52;7.60;99.90
68139;DHT22;54940;50.842;4.410;2023-01-09T17:38:18;7.60;99.90
68139;DHT22;54940;50.842;4.410;2023-01-09T17:40:44;7.50;99.90
68139;DHT22;54940;50.842;4.410;2023-01-09T17:43:10;7.50;99.90
68139;DHT22;54940;50.842;4.410;2023-01-09T17:45:37;7.50;99.90
68139;DHT22;54940;50.842;4.410;2023-01-09T17:48:12;7.40;99.90
68139;DHT22;54940;50.842;4.410;2023-01-09T17:50:38;7.50;99.90
68139;DHT22;54940;50.842;4.410;2023-01-09T17:53:03;7.50;99.90
68139;DHT22;54940;50.842;4.410;2023-01-09T17:55:29;7.50;99.90
68139;DHT22;54940;50.842;4.410;2023-01-09T17:57:55;7.50;99.90
68139;DHT22;54940;50.842;4.410;2023-01-09T18:00:30;7.50;99.90
68139;DHT22;54940;50.842;4.410;2023-01-09T18:02:58;7.50;99.90
68139;DHT22;54940;50.842;4.410;2023-01-09T18:05:25;7.40;99.90
68139;DHT22;54940;50.842;4.410;2023-01-09T18:07:52;7.30;99.90
68139;DHT22;54940;50.842;4.410;2023-01-09T18:10:21;7.30;99.90
68139;DHT22;54940;50.842;4.410;2023-01-09T18:12:50;7.30;99.90
68139;DHT22;54940;50.842;4.410;2023-01-09T18:15:17;7.10;99.90
68139;DHT22;54940;50.842;4.410;2023-01-09T18:17:42;7.10;99.90
68139;DHT22;54940;50.842;4.410;2023-01-09T18:20:08;7.20;99.90
68139;DHT22;54940;50.842;4.410;2023-01-09T18:22:35;7.20;99.90
68139;DHT22;54940;50.842;4.410;2023-01-09T18:25:01;7.20;99.90
68139;DHT22;54940;50.842;4.410;2023-01-09T18:27:27;7.20;99.90
68139;DHT22;54940;50.842;4.410;2023-01-09T18:29:52;7.20;99.90
68139;DHT22;54940;50.842;4.410;2023-01-09T18:32:18;7.20;99.90